ADDS METAR Data INFO
IDs: Format: Raw Decoded Include TAF

Data at: 2011 UTC 19 Oct 2017

KSME 191955Z AUTO 00000KT 10SM CLR 20/06 A3027 RMK AO2
KSME 191935Z AUTO 27003KT 10SM CLR 20/07 A3027 RMK AO2
KSME 191915Z AUTO 24007KT 180V270 10SM CLR 20/07 A3027 RMK AO2
KSME 191855Z AUTO 27006KT 10SM CLR 20/07 A3028 RMK AO2
KSME 191835Z AUTO 28004KT 10SM CLR 20/06 A3029 RMK AO2
KSME 191815Z AUTO 27004KT 10SM CLR 20/07 A3030 RMK AO2
KSME 191755Z AUTO 27004KT 10SM CLR 19/07 A3032 RMK AO2
KSME 191735Z AUTO 27006KT 10SM CLR 18/07 A3033 RMK AO2
KSME 191715Z AUTO 23005KT 10SM CLR 18/07 A3033 RMK AO2
KSME 191655Z AUTO 27006KT 10SM CLR 18/07 A3034 RMK AO2
KSME 191635Z AUTO 27009KT 10SM CLR 18/07 A3035 RMK AO2
KSME 191615Z AUTO 27006KT 10SM CLR 17/07 A3035 RMK AO2
KSME 191555Z AUTO 19004KT 10SM CLR 17/08 A3035 RMK AO2
KSME 191535Z AUTO 00000KT 10SM CLR 15/07 A3035 RMK AO2
KSME 191515Z AUTO 19004KT 10SM CLR 14/07 A3035 RMK AO2
KSME 191455Z AUTO 18003KT 10SM CLR 13/07 A3036 RMK AO2
KSME 191435Z AUTO 17004KT 10SM CLR 12/07 A3035 RMK AO2
KSME 191415Z AUTO 18003KT 10SM CLR 11/07 A3035 RMK AO2
KSME 191355Z AUTO 18004KT 10SM CLR 11/09 A3035 RMK AO2
KSME 191335Z AUTO 00000KT 10SM CLR 10/09 A3035 RMK AO2
KSME 191315Z AUTO 00000KT 10SM CLR 08/08 A3034 RMK AO2
KSME 191255Z AUTO 00000KT 10SM CLR 07/07 A3033 RMK AO2
KSME 191235Z AUTO 00000KT 10SM CLR 06/06 A3033 RMK AO2
KSME 191215Z AUTO 00000KT 10SM CLR 05/05 A3032 RMK AO2
KSME 191155Z AUTO 00000KT 10SM CLR 05/05 A3031 RMK AO2
KSME 191135Z AUTO 00000KT 10SM CLR 05/05 A3032 RMK AO2
KSME 191115Z AUTO 00000KT 10SM CLR 05/05 A3032 RMK AO2
KSME 191055Z AUTO 00000KT 10SM CLR 05/05 A3031 RMK AO2
KSME 191035Z AUTO 00000KT 10SM CLR 05/05 A3031 RMK AO2
KSME 191015Z AUTO 00000KT 10SM CLR 05/05 A3030 RMK AO2
KSME 190955Z AUTO 00000KT 10SM CLR 05/05 A3030 RMK AO2
KSME 190935Z AUTO 00000KT 10SM CLR 05/05 A3029 RMK AO2
KSME 190915Z AUTO 00000KT 10SM CLR 06/06 A3028 RMK AO2
KSME 190855Z AUTO 00000KT 06/06 A3028 RMK AO2 PWINO
KSME 190835Z AUTO 00000KT 10SM CLR 06/06 A3027 RMK AO2
KSME 190815Z AUTO 00000KT 10SM CLR 06/06 A3027 RMK AO2
KSME 190755Z AUTO 00000KT 10SM CLR 06/06 A3027 RMK AO2
KSME 190735Z AUTO 00000KT 10SM CLR 06/06 A3027 RMK AO2
KSME 190715Z AUTO 00000KT 10SM CLR 08/08 A3027 RMK AO2
KSME 190655Z AUTO 00000KT 10SM CLR 08/08 A3027 RMK AO2
KSME 190635Z AUTO 00000KT 10SM CLR 08/08 A3027 RMK AO2
KSME 190615Z AUTO 00000KT 10SM CLR 07/07 A3026 RMK AO2
KSME 190555Z AUTO 00000KT 10SM CLR 07/07 A3027 RMK AO2
KSME 190535Z AUTO 00000KT 10SM CLR 08/08 A3026 RMK AO2
KSME 190515Z AUTO 00000KT 10SM CLR 08/08 A3026 RMK AO2
KSME 190455Z AUTO 18003KT 10SM CLR 10/09 A3026 RMK AO2
KSME 190435Z AUTO 18003KT 10SM CLR 08/08 A3026 RMK AO2
KSME 190415Z AUTO 18003KT 10SM CLR 07/07 A3026 RMK AO2
KSME 190355Z AUTO 00000KT 10SM CLR 07/07 A3027 RMK AO2
KSME 190335Z AUTO 00000KT 10SM CLR 07/07 A3027 RMK AO2
KSME 190315Z AUTO 00000KT 10SM CLR 08/08 A3028 RMK AO2
KSME 190255Z AUTO 00000KT 10SM CLR 08/08 A3028 RMK AO2
KSME 190235Z AUTO 00000KT 10SM CLR 08/08 A3028 RMK AO2
KSME 190215Z AUTO 00000KT 10SM CLR 08/08 A3027 RMK AO2
KSME 190155Z AUTO 00000KT 10SM CLR 09/08 A3027 RMK AO2
KSME 190135Z AUTO 00000KT 10SM CLR 10/08 A3027 RMK AO2
KSME 190115Z AUTO 00000KT 10SM CLR 10/08 A3027 RMK AO2
KSME 190055Z AUTO 00000KT 10SM CLR 11/08 A3027 RMK AO2
KSME 190035Z AUTO 00000KT 10SM CLR 11/07 A3027 RMK AO2
KSME 190015Z AUTO 00000KT 10SM CLR 12/07 A3027 RMK AO2
KSME 182355Z AUTO 00000KT 10SM CLR 13/07 A3027 RMK AO2
KSME 182335Z AUTO 00000KT 10SM CLR 15/06 A3026 RMK AO2
KSME 182315Z AUTO 00000KT 10SM CLR 16/06 A3026 RMK AO2
KSME 182255Z AUTO 00000KT 10SM CLR 17/06 A3026 RMK AO2
KSME 182235Z AUTO 00000KT 10SM CLR 18/06 A3026 RMK AO2
KSME 182215Z AUTO 00000KT 10SM CLR 19/05 A3026 RMK AO2
KSME 182155Z AUTO 00000KT 10SM CLR 20/06 A3026 RMK AO2
KSME 182135Z AUTO 00000KT 10SM CLR 19/06 A3026 RMK AO2
KSME 182115Z AUTO 00000KT 10SM CLR 18/06 A3027 RMK AO2
KSME 182055Z AUTO 09003KT 10SM CLR 20/07 A3027 RMK AO2
KSME 182035Z AUTO 00000KT 10SM CLR 20/06 A3027 RMK AO2
KSME 182015Z AUTO 27003KT 10SM CLR 20/06 A3028 RMK AO2
KSME 181955Z AUTO 22004KT 10SM CLR 19/07 A3028 RMK AO2
KSME 181935Z AUTO 23003KT 10SM CLR 19/06 A3029 RMK AO2
KSME 181915Z AUTO 00000KT 10SM CLR 18/06 A3030 RMK AO2
KSME 181855Z AUTO 17004KT 10SM CLR 18/06 A3030 RMK AO2
KSME 181835Z AUTO 26006KT 10SM CLR 18/06 A3030 RMK AO2
KSME 181815Z AUTO 00000KT 10SM CLR 18/06 A3031 RMK AO2
KSME 181755Z AUTO 00000KT 10SM CLR 17/06 A3033 RMK AO2
KSME 181735Z AUTO 00000KT 10SM CLR 17/06 A3033 RMK AO2
KSME 181715Z AUTO 27004KT 10SM CLR 17/06 A3035 RMK AO2
KSME 181655Z AUTO 27004KT 10SM CLR 17/07 A3035 RMK AO2
KSME 181635Z AUTO 27005KT 10SM CLR 16/07 A3036 RMK AO2
KSME 181615Z AUTO 00000KT 10SM CLR 16/08 A3037 RMK AO2
KSME 181555Z AUTO 00000KT 10SM CLR 15/07 A3038 RMK AO2
KSME 181535Z AUTO 22004KT 10SM CLR 14/08 A3038 RMK AO2
KSME 181515Z AUTO 00000KT 10SM CLR 12/07 A3038 RMK AO2
KSME 181455Z AUTO 00000KT 10SM CLR 11/07 A3038 RMK AO2
KSME 181435Z AUTO 18004KT 10SM CLR 11/07 A3038 RMK AO2
KSME 181415Z AUTO 18004KT 10SM CLR 09/08 A3038 RMK AO2
KSME 181355Z AUTO 15004KT 10SM CLR 08/08 A3038 RMK AO2
KSME 181335Z AUTO 16003KT 10SM CLR 07/07 A3037 RMK AO2
KSME 181315Z AUTO 00000KT 10SM SCT001 06/06 A3037 RMK AO2
KSME 181255Z AUTO 00000KT 1 1/4SM BR OVC001 04/04 A3036 RMK AO2
KSME 181235Z AUTO 00000KT 1/2SM FG OVC001 03/03 A3035 RMK AO2
KSME 181215Z AUTO 00000KT 1SM BR OVC001 03/03 A3035 RMK AO2
KSME 181155Z AUTO 00000KT 2 1/2SM BR SCT001 02/02 A3034 RMK AO2 VIS 1/2V5
KSME 181135Z AUTO 00000KT 1SM BR BKN001 02/02 A3034 RMK AO2 VIS 1/2V2
KSME 181115Z AUTO 00000KT 5SM BR SCT001 03/03 A3033 RMK AO2
KSME 181055Z AUTO 00000KT 1SM BR BKN001 03/03 A3033 RMK AO2
KSME 181035Z AUTO 00000KT 10SM CLR 03/03 A3033 RMK AO2
KSME 181015Z AUTO 00000KT 7SM CLR 03/03 A3032 RMK AO2
KSME 180955Z AUTO 00000KT 10SM CLR 03/03 A3032 RMK AO2
KSME 180935Z AUTO 00000KT 10SM CLR 03/03 A3031 RMK AO2
KSME 180915Z AUTO 00000KT 10SM CLR 03/03 A3031 RMK AO2
KSME 180855Z AUTO 00000KT 10SM CLR 03/03 A3031 RMK AO2
KSME 180835Z AUTO 00000KT 10SM CLR 03/03 A3030 RMK AO2
KSME 180815Z AUTO 00000KT 10SM CLR 03/03 A3030 RMK AO2